Time;durP1;ratioP1;P1;durP2;ratioP2;P2;SDS_P1;SDS_P2;PMS_P1;PMS_P2;Temp;Humidity;BMP_temperature;BMP_pressure;BME280_temperature;BME280_humidity;BME280_pressure;Samples;Min_cycle;Max_cycle;Signal;HPM_P1;HPM_P2
2021/06/09 00:01:59;;;;;;;13.70;10.25;;;;;;;17.07;70.13;101918.34;5029906;28;20033;-70
2021/06/09 00:04:24;;;;;;;13.35;9.75;;;;;;;17.09;70.04;101919.00;5029021;28;20037;-70
2021/06/09 00:06:50;;;;;;;12.13;10.07;;;;;;;17.10;69.92;101925.84;5029416;28;20229;-70
2021/06/09 00:09:15;;;;;;;16.17;11.02;;;;;;;17.07;69.96;101924.41;5031006;28;20457;-70
2021/06/09 00:11:41;;;;;;;21.10;11.90;;;;;;;16.95;70.29;101917.09;5030111;28;20045;-70
2021/06/09 00:14:07;;;;;;;13.75;10.50;;;;;;;16.80;71.01;101925.66;5030448;28;20242;-70
2021/06/09 00:16:34;;;;;;;19.63;11.90;;;;;;;16.69;71.32;101926.81;5043608;28;20386;-70
2021/06/09 00:18:59;;;;;;;13.63;10.75;;;;;;;16.57;71.59;101922.13;5028647;28;20041;-70
2021/06/09 00:21:24;;;;;;;15.90;11.02;;;;;;;16.53;71.61;101925.06;5029821;28;20033;-70
2021/06/09 00:23:50;;;;;;;13.43;10.57;;;;;;;16.52;71.84;101923.44;5044970;28;20029;-70
2021/06/09 00:26:18;;;;;;;16.40;12.02;;;;;;;16.56;71.70;101923.91;5028153;28;20040;-70
2021/06/09 00:28:45;;;;;;;15.45;10.65;;;;;;;16.60;71.43;101924.41;5044790;28;20389;-70
2021/06/09 00:31:11;;;;;;;14.15;10.70;;;;;;;16.61;71.34;101918.16;5045995;28;20029;-70
2021/06/09 00:33:37;;;;;;;12.60;10.15;;;;;;;16.64;71.31;101921.28;5043406;28;20487;-70
2021/06/09 00:36:04;;;;;;;19.55;12.40;;;;;;;16.65;71.11;101917.69;5029020;28;20040;-70
2021/06/09 00:38:29;;;;;;;15.18;11.60;;;;;;;16.59;71.40;101922.75;5028705;28;20030;-70
2021/06/09 00:40:57;;;;;;;14.48;11.00;;;;;;;16.47;71.69;101925.75;5030753;28;20537;-70
2021/06/09 00:43:27;;;;;;;14.75;10.93;;;;;;;16.37;71.99;101914.66;5028640;28;20029;-71
2021/06/09 00:46:01;;;;;;;15.73;11.98;;;;;;;16.27;72.15;101920.03;5022505;28;20028;-70
2021/06/09 00:48:29;;;;;;;18.60;12.68;;;;;;;16.19;72.58;101921.88;5027828;28;20033;-70
2021/06/09 00:50:57;;;;;;;23.60;14.27;;;;;;;16.10;72.66;101929.72;5030059;28;20091;-70
2021/06/09 00:53:31;;;;;;;17.85;13.77;;;;;;;16.02;72.92;101913.22;5023888;28;20112;-70
2021/06/09 00:55:58;;;;;;;17.27;13.50;;;;;;;15.94;73.30;101925.31;5050148;28;20136;-70
2021/06/09 00:58:24;;;;;;;15.20;12.20;;;;;;;15.91;73.39;101924.81;5028076;28;20037;-70
2021/06/09 01:00:50;;;;;;;17.17;12.30;;;;;;;15.89;73.65;101916.34;5045134;28;20025;-70
2021/06/09 01:03:16;;;;;;;21.10;13.95;;;;;;;15.88;73.88;101918.13;5042594;28;20441;-70
2021/06/09 01:05:42;;;;;;;17.27;12.15;;;;;;;15.93;73.71;101917.63;5028635;28;20115;-70
2021/06/09 01:08:08;;;;;;;16.00;12.50;;;;;;;15.99;73.11;101916.97;5028107;28;20478;-70
2021/06/09 01:10:34;;;;;;;17.10;13.88;;;;;;;16.04;72.90;101914.69;5029614;28;20025;-70
2021/06/09 01:13:01;;;;;;;19.23;13.55;;;;;;;16.08;72.45;101904.72;5027461;28;20034;-70
2021/06/09 01:15:27;;;;;;;17.48;12.55;;;;;;;16.10;72.40;101908.78;5044830;28;20033;-70
2021/06/09 01:17:53;;;;;;;17.85;12.38;;;;;;;16.13;72.37;101911.06;5027483;28;20033;-70
2021/06/09 01:20:19;;;;;;;19.92;13.65;;;;;;;16.13;72.49;101902.41;5028885;28;20425;-70
2021/06/09 01:22:45;;;;;;;17.98;12.65;;;;;;;16.12;72.52;101906.84;5028671;28;20124;-70
2021/06/09 01:25:11;;;;;;;16.63;13.20;;;;;;;16.13;72.28;101907.66;5027761;28;20479;-70
2021/06/09 01:27:37;;;;;;;18.33;12.68;;;;;;;16.11;72.47;101907.00;5028559;28;20441;-70
2021/06/09 01:30:07;;;;;;;20.73;13.43;;;;;;;16.07;72.85;101903.91;5028739;28;20037;-70
2021/06/09 01:32:33;;;;;;;18.90;13.10;;;;;;;16.05;73.03;101905.03;5029159;28;20124;-70
2021/06/09 01:34:59;;;;;;;17.25;13.20;;;;;;;16.04;72.84;101903.41;5028260;28;20135;-70
2021/06/09 01:37:24;;;;;;;17.90;12.93;;;;;;;16.00;73.01;101907.34;5026296;28;20502;-70
2021/06/09 01:39:54;;;;;;;19.48;13.82;;;;;;;15.98;72.99;101906.69;5028987;28;20112;-70
2021/06/09 01:42:24;;;;;;;19.15;14.23;;;;;;;15.94;73.15;101903.59;5044070;28;20091;-70
2021/06/09 01:44:50;;;;;;;18.38;13.93;;;;;;;15.92;73.27;101905.56;5044001;28;20029;-70
2021/06/09 01:47:16;;;;;;;19.80;13.10;;;;;;;15.90;73.14;101907.53;5043352;28;20037;-70
2021/06/09 01:49:42;;;;;;;17.85;13.52;;;;;;;15.88;73.05;101902.44;5027968;28;20112;-71
2021/06/09 01:52:07;;;;;;;24.05;14.77;;;;;;;15.86;72.92;101903.56;5028671;28;20456;-70
2021/06/09 01:54:33;;;;;;;17.80;13.18;;;;;;;15.83;72.86;101906.53;5042559;28;20502;-71
2021/06/09 01:56:59;;;;;;;16.75;12.57;;;;;;;15.80;72.88;101902.44;5026832;28;20061;-70
2021/06/09 01:59:24;;;;;;;18.95;12.68;;;;;;;15.76;73.03;101909.81;5027035;28;20067;-70
2021/06/09 02:01:50;;;;;;;19.73;14.40;;;;;;;15.73;73.09;101907.50;5041612;28;20095;-70
2021/06/09 02:04:17;;;;;;;23.42;15.38;;;;;;;15.72;73.13;101908.44;5043598;28;20033;-70
2021/06/09 02:06:44;;;;;;;19.25;14.75;;;;;;;15.70;73.54;101907.78;5028161;28;20064;-70
2021/06/09 02:09:11;;;;;;;23.20;17.10;;;;;;;15.69;73.40;101906.19;5027470;28;20035;-70
2021/06/09 02:11:44;;;;;;;22.85;16.00;;;;;;;15.67;73.37;101913.38;5027111;28;20041;-70
2021/06/09 02:14:10;;;;;;;;;;;;;;;15.64;73.87;101910.25;5028764;28;20068;-70
2021/06/09 02:16:43;;;;;;;24.65;17.48;;;;;;;15.62;73.83;101904.38;5025423;28;19943;-70
2021/06/09 02:19:09;;;;;;;24.55;17.67;;;;;;;15.56;74.24;101901.41;5041178;28;20033;-70
2021/06/09 02:21:36;;;;;;;24.10;17.60;;;;;;;15.54;74.28;101902.56;5028960;28;20098;-70
2021/06/09 02:24:03;;;;;;;32.10;19.25;;;;;;;15.52;74.19;101894.88;5027369;28;20543;-70
2021/06/09 02:26:29;;;;;;;26.33;17.92;;;;;;;15.51;74.36;101895.03;5027388;28;20094;-70
2021/06/09 02:28:55;;;;;;;22.67;16.77;;;;;;;15.49;74.59;101895.19;5028135;28;20033;-70
2021/06/09 02:31:20;;;;;;;23.60;16.85;;;;;;;15.46;74.66;101892.91;5028759;28;20025;-71
2021/06/09 02:33:46;;;;;;;24.02;18.33;;;;;;;15.44;74.39;101899.28;5027703;28;20037;-70
2021/06/09 02:36:13;;;;;;;29.05;18.67;;;;;;;15.42;74.47;101898.63;5043626;28;20462;-70
2021/06/09 02:38:40;;;;;;;27.02;17.98;;;;;;;15.40;74.39;101905.81;5026857;28;20037;-70
2021/06/09 02:41:07;;;;;;;26.63;19.73;;;;;;;15.37;74.46;101907.78;5028171;28;20083;-70
2021/06/09 02:43:33;;;;;;;26.40;18.65;;;;;;;15.32;74.76;101909.22;5027429;28;20065;-70
2021/06/09 02:46:13;;;;;;;25.70;18.48;;;;;;;15.27;75.14;101907.06;5026888;28;20032;-70
2021/06/09 02:48:42;;;;;;;22.58;17.52;;;;;;;15.25;75.14;101908.22;5025225;28;20045;-70
2021/06/09 02:51:08;;;;;;;22.70;16.63;;;;;;;15.23;75.24;101908.38;5026049;28;20048;-70
2021/06/09 02:53:38;;;;;;;23.38;18.15;;;;;;;15.22;75.27;101912.00;5027061;28;20025;-71
2021/06/09 02:56:19;;;;;;;28.08;18.85;;;;;;;15.09;75.59;101914.25;5040528;28;20033;-71
2021/06/09 02:59:23;;;;;;;21.92;16.52;;;;;;;14.94;75.81;101903.56;5024856;28;20044;-70
2021/06/09 03:02:08;;;;;;;22.33;15.85;;;;;;;14.79;75.83;101911.19;5027360;28;20045;-70
2021/06/09 03:04:47;;;;;;;18.10;13.57;;;;;;;14.68;76.17;101908.84;5027264;28;20440;-70
2021/06/09 03:07:38;;;;;;;18.85;14.68;;;;;;;14.57;76.30;101910.75;5027045;28;20033;-70
2021/06/09 03:10:21;;;;;;;16.73;12.55;;;;;;;14.48;76.59;101905.59;5040505;28;20067;-70
2021/06/09 03:13:02;;;;;;;18.42;13.15;;;;;;;14.50;76.56;101904.47;5031703;28;20065;-70
2021/06/09 03:16:09;;;;;;;19.42;14.18;;;;;;;14.55;76.31;101907.44;5030176;28;20041;-70
2021/06/09 03:18:45;;;;;;;32.38;20.40;;;;;;;14.50;77.15;101906.28;5026695;28;20061;-70
2021/06/09 03:21:42;;;;;;;23.45;17.10;;;;;;;14.48;77.03;101903.00;5031482;28;20103;-70
2021/06/09 03:24:17;;;;;;;22.25;16.65;;;;;;;14.50;76.87;101901.84;5023898;28;20593;-70
2021/06/09 03:27:08;;;;;;;20.83;15.00;;;;;;;14.54;76.79;101907.59;5028571;28;20503;-70
2021/06/09 03:29:39;;;;;;;26.40;16.50;;;;;;;14.59;76.45;101908.78;5027978;28;20044;-70
2021/06/09 03:32:09;;;;;;;22.55;15.90;;;;;;;14.64;76.27;101905.72;5046262;28;20487;-71
2021/06/09 03:35:13;;;;;;;20.13;15.57;;;;;;;14.64;76.39;101904.91;5030140;28;20037;-70
2021/06/09 03:37:46;;;;;;;22.73;16.50;;;;;;;14.66;76.03;101913.41;5015742;28;20677;-70
2021/06/09 03:40:16;;;;;;;23.00;17.08;;;;;;;14.66;76.38;101903.78;5029145;28;20064;-70
2021/06/09 03:42:47;;;;;;;25.30;16.90;;;;;;;14.68;76.02;101907.06;5029532;28;20029;-70
2021/06/09 03:45:14;;;;;;;25.27;19.00;;;;;;;14.68;76.26;101908.84;5031254;28;20087;-70
2021/06/09 03:47:40;;;;;;;24.88;18.02;;;;;;;14.65;76.49;101906.53;5029590;28;20069;-70
2021/06/09 03:50:07;;;;;;;24.02;17.38;;;;;;;14.59;76.64;101907.97;5030863;28;20029;-70
2021/06/09 03:52:36;;;;;;;25.23;16.83;;;;;;;14.57;76.68;101908.13;5026000;28;20044;-70
2021/06/09 03:55:04;;;;;;;23.20;15.95;;;;;;;14.58;76.48;101907.16;5031633;28;20033;-70
2021/06/09 03:57:32;;;;;;;23.65;17.88;;;;;;;14.59;76.36;101903.56;5043268;28;20041;-70
2021/06/09 03:59:58;;;;;;;23.92;17.27;;;;;;;14.61;76.31;101900.81;5030566;28;20040;-70
2021/06/09 04:02:25;;;;;;;30.65;21.25;;;;;;;14.62;76.33;101901.63;5030053;28;20036;-70
2021/06/09 04:04:57;;;;;;;27.13;18.38;;;;;;;14.55;76.95;101899.63;5045584;28;20045;-70
2021/06/09 04:07:23;;;;;;;24.92;18.20;;;;;;;14.48;77.31;101903.00;5027723;28;20034;-70
2021/06/09 04:09:51;;;;;;;28.45;19.80;;;;;;;14.44;77.57;101901.69;5029850;28;20040;-70
2021/06/09 04:12:18;;;;;;;26.80;19.08;;;;;;;14.33;77.50;101906.16;5030752;28;20078;-70
2021/06/09 04:14:46;;;;;;;24.80;15.82;;;;;;;14.26;77.42;101905.16;5044420;28;20133;-70
2021/06/09 04:17:17;;;;;;;25.35;17.98;;;;;;;14.24;77.59;101903.66;5028237;28;20025;-70
2021/06/09 04:19:45;;;;;;;20.92;14.75;;;;;;;14.24;77.62;101895.84;5044504;28;20029;-70
2021/06/09 04:22:11;;;;;;;23.30;16.25;;;;;;;14.25;77.83;101894.88;5030164;28;20037;-70
2021/06/09 04:24:41;;;;;;;24.80;17.70;;;;;;;14.31;77.72;101894.25;5045260;28;20037;-70
2021/06/09 04:27:28;;;;;;;22.73;16.52;;;;;;;14.41;77.33;101895.78;5028854;28;20037;-70
2021/06/09 04:29:56;;;;;;;31.90;20.33;;;;;;;14.50;77.18;101895.84;5030108;28;20103;-70
2021/06/09 04:32:22;;;;;;;23.50;17.25;;;;;;;14.55;77.31;101897.00;5030092;28;20083;-70
2021/06/09 04:34:53;;;;;;;25.67;18.40;;;;;;;14.63;77.19;101896.25;5044417;28;20033;-70
2021/06/09 04:37:22;;;;;;;29.42;20.02;;;;;;;14.71;77.02;101895.47;5029025;28;20025;-70
2021/06/09 04:39:48;;;;;;;29.60;21.13;;;;;;;14.77;77.13;101898.28;5028053;28;20414;-70
2021/06/09 04:42:15;;;;;;;30.45;21.25;;;;;;;14.84;77.26;101897.66;5030831;28;20029;-70
2021/06/09 04:44:42;;;;;;;32.70;22.75;;;;;;;14.89;77.40;101892.78;5045169;28;20064;-70
2021/06/09 04:47:09;;;;;;;33.78;23.58;;;;;;;14.93;78.24;101897.50;5024714;28;20025;-71
2021/06/09 04:49:37;;;;;;;33.88;23.77;;;;;;;14.98;78.72;101897.06;5029182;28;20033;-70
2021/06/09 04:52:04;;;;;;;37.65;25.45;;;;;;;15.06;78.54;101894.47;5029640;28;20040;-70
2021/06/09 04:54:30;;;;;;;39.30;27.60;;;;;;;15.18;78.90;101897.59;5028038;28;20333;-70
2021/06/09 04:56:56;;;;;;;33.67;22.65;;;;;;;15.24;79.31;101898.75;5027406;28;20037;-70
2021/06/09 04:59:22;;;;;;;26.63;19.35;;;;;;;15.16;79.51;101894.31;5029570;28;20247;-70
2021/06/09 05:01:48;;;;;;;25.88;19.05;;;;;;;15.21;79.50;101899.88;5027386;28;20045;-70
2021/06/09 05:04:13;;;;;;;27.17;19.10;;;;;;;15.30;79.18;101901.53;5027654;28;20033;-70
2021/06/09 05:06:39;;;;;;;28.75;19.60;;;;;;;15.42;78.44;101898.63;5028325;28;20029;-70
2021/06/09 05:09:06;;;;;;;26.67;20.38;;;;;;;15.55;77.69;101898.97;5044990;28;20026;-71
2021/06/09 05:11:52;;;;;;;37.92;23.58;;;;;;;15.70;76.92;101901.75;5028481;28;20116;-70
2021/06/09 05:14:26;;;;;;;37.45;24.30;;;;;;;15.88;77.07;101893.75;5027294;28;20041;-71
2021/06/09 05:16:54;;;;;;;39.13;24.20;;;;;;;15.96;77.31;101899.00;5027567;28;20037;-70
2021/06/09 05:19:23;;;;;;;27.60;20.40;;;;;;;16.07;77.04;101897.84;5027171;28;20501;-70
2021/06/09 05:21:51;;;;;;;27.70;19.10;;;;;;;16.24;76.56;101903.88;5025600;28;20098;-71
2021/06/09 05:24:21;;;;;;;25.00;19.10;;;;;;;16.43;76.26;101897.47;5043561;28;20029;-71
2021/06/09 05:26:47;;;;;;;28.23;19.90;;;;;;;16.62;75.64;101899.69;5029026;28;20140;-70
2021/06/09 05:29:16;;;;;;;23.80;18.23;;;;;;;16.80;75.28;101893.38;5028375;28;20057;-70
2021/06/09 05:31:43;;;;;;;26.23;20.10;;;;;;;16.99;74.59;101895.63;5027379;28;20034;-70
2021/06/09 05:34:10;;;;;;;36.42;25.08;;;;;;;17.18;74.63;101896.16;5028057;28;20037;-70
2021/06/09 05:36:38;;;;;;;29.75;21.02;;;;;;;17.38;74.01;101896.53;5043470;28;20025;-70
2021/06/09 05:39:03;;;;;;;32.38;21.35;;;;;;;17.55;73.47;101892.81;5041944;28;20081;-70
2021/06/09 05:41:29;;;;;;;36.50;24.95;;;;;;;17.83;73.23;101894.88;5044015;28;20088;-71
2021/06/09 05:43:54;;;;;;;34.58;25.83;;;;;;;17.98;72.55;101897.56;5028561;28;20096;-70
2021/06/09 05:46:20;;;;;;;36.78;25.95;;;;;;;18.07;72.28;101896.50;5027768;28;20398;-70
2021/06/09 05:48:47;;;;;;;29.88;23.95;;;;;;;18.22;71.42;101892.06;5027958;28;20040;-70
2021/06/09 05:51:17;;;;;;;28.63;21.13;;;;;;;18.49;70.88;101889.81;5025288;28;20088;-70
2021/06/09 05:53:43;;;;;;;30.80;23.08;;;;;;;18.78;70.82;101896.00;5025962;28;20700;-70
2021/06/09 05:56:09;;;;;;;40.30;25.40;;;;;;;19.05;69.86;101894.56;5026647;28;20065;-71
2021/06/09 05:58:37;;;;;;;40.05;26.88;;;;;;;19.28;68.42;101889.13;5041715;28;20107;-70
2021/06/09 06:01:08;;;;;;;35.53;25.45;;;;;;;19.48;68.96;101891.13;5027811;28;20040;-70
2021/06/09 06:03:34;;;;;;;31.08;23.10;;;;;;;19.74;67.87;101887.94;5043984;28;20035;-71
2021/06/09 06:06:04;;;;;;;31.08;23.45;;;;;;;20.01;67.33;101892.41;5043073;28;20457;-71
2021/06/09 06:08:32;;;;;;;29.65;22.20;;;;;;;20.32;66.52;101888.53;5042484;28;20462;-71
2021/06/09 06:11:19;;;;;;;27.88;20.52;;;;;;;20.60;65.81;101890.31;5027760;28;20065;-70
2021/06/09 06:13:48;;;;;;;30.40;22.80;;;;;;;20.89;65.39;101894.50;5028477;28;20409;-71
2021/06/09 06:16:16;;;;;;;34.38;25.85;;;;;;;21.13;64.30;101889.66;5027426;28;20401;-71
2021/06/09 06:18:43;;;;;;;36.47;27.02;;;;;;;21.35;63.32;101896.41;5027339;28;20064;-71
2021/06/09 06:21:11;;;;;;;32.72;24.80;;;;;;;21.61;63.03;101894.03;5041699;28;20038;-71
2021/06/09 06:23:38;;;;;;;36.22;26.05;;;;;;;21.79;60.36;101886.28;5027993;28;20045;-71
2021/06/09 06:26:05;;;;;;;26.50;19.95;;;;;;;22.08;60.22;101892.16;5028265;28;20572;-71
2021/06/09 06:28:32;;;;;;;36.40;24.55;;;;;;;22.28;58.99;101895.59;5026308;28;20056;-71
2021/06/09 06:30:58;;;;;;;36.17;26.20;;;;;;;22.48;58.37;101887.59;5027781;28;20033;-71
2021/06/09 06:33:27;;;;;;;27.77;21.13;;;;;;;22.76;57.60;101885.66;5026867;28;20032;-71
2021/06/09 06:35:56;;;;;;;31.70;24.90;;;;;;;23.00;57.02;101887.56;5020793;28;20029;-71
2021/06/09 06:38:23;;;;;;;36.60;24.50;;;;;;;23.17;56.06;101890.53;5025018;28;20037;-71
2021/06/09 06:40:49;;;;;;;30.95;20.02;;;;;;;23.35;55.16;101888.97;5043876;28;20064;-71
2021/06/09 06:43:15;;;;;;;32.97;25.77;;;;;;;23.45;54.45;101889.31;5025603;28;20041;-71
2021/06/09 06:45:42;;;;;;;36.50;26.23;;;;;;;23.56;54.77;101899.19;5027860;28;20092;-71
2021/06/09 06:48:08;;;;;;;25.30;19.98;;;;;;;23.88;53.93;101889.38;5024182;28;20685;-71
2021/06/09 06:50:34;;;;;;;33.55;24.40;;;;;;;23.99;53.22;101894.97;5025025;28;20033;-71
2021/06/09 06:53:04;;;;;;;34.38;22.63;;;;;;;24.36;51.90;101889.69;5039011;28;20041;-71
2021/06/09 06:55:30;;;;;;;33.78;21.48;;;;;;;24.61;51.83;101886.97;5021352;28;20117;-71
2021/06/09 06:57:56;;;;;;;27.33;21.25;;;;;;;24.82;50.42;101880.34;5028411;28;20018;-71
2021/06/09 07:00:22;;;;;;;25.77;18.45;;;;;;;25.11;50.15;101880.56;5025966;28;20045;-71
2021/06/09 07:02:50;;;;;;;28.48;20.90;;;;;;;25.12;49.50;101896.25;5025878;28;20034;-71
2021/06/09 07:05:17;;;;;;;20.75;15.98;;;;;;;25.39;48.52;101893.22;5023793;28;20041;-71
2021/06/09 07:07:43;;;;;;;28.95;21.35;;;;;;;25.49;47.10;101895.31;5023755;28;20084;-71
2021/06/09 07:10:12;;;;;;;33.72;20.45;;;;;;;25.66;47.25;101893.59;5024669;28;20494;-71
2021/06/09 07:12:38;;;;;;;19.85;15.60;;;;;;;26.08;47.13;101895.34;5025496;28;20065;-72
2021/06/09 07:15:12;;;;;;;24.90;14.85;;;;;;;26.21;46.85;101900.38;5036699;28;20068;-72
2021/06/09 07:17:46;;;;;;;21.48;15.50;;;;;;;26.46;46.43;101891.31;5041100;28;20040;-72
2021/06/09 07:20:13;;;;;;;24.27;19.05;;;;;;;26.69;45.72;101891.25;5022011;28;20084;-72
2021/06/09 07:22:40;;;;;;;26.00;19.90;;;;;;;26.78;44.76;101886.34;5023738;28;20099;-72
2021/06/09 07:25:07;;;;;;;19.23;14.45;;;;;;;27.07;44.59;101889.81;5025421;28;20051;-72
2021/06/09 07:27:35;;;;;;;21.83;14.57;;;;;;;27.25;42.07;101880.78;5023591;28;20994;-72
2021/06/09 07:30:04;;;;;;;20.05;16.63;;;;;;;27.25;42.98;101880.78;5027881;28;20065;-72
2021/06/09 07:32:30;;;;;;;21.13;12.70;;;;;;;27.51;42.98;101887.31;5042425;28;20072;-72
2021/06/09 07:34:56;;;;;;;22.77;18.42;;;;;;;27.51;41.34;101882.00;5043157;28;20072;-72
2021/06/09 07:37:23;;;;;;;22.80;17.33;;;;;;;27.69;41.08;101885.44;5026181;28;20051;-72
2021/06/09 07:39:56;;;;;;;23.52;15.82;;;;;;;27.57;42.20;101885.53;5023106;28;20114;-72
2021/06/09 07:42:26;;;;;;;21.63;15.43;;;;;;;27.81;41.00;101880.81;5042932;28;20037;-72
2021/06/09 07:44:57;;;;;;;23.00;16.40;;;;;;;27.71;40.31;101883.34;5026554;28;20034;-73
2021/06/09 07:47:24;;;;;;;19.43;14.63;;;;;;;27.99;40.18;101898.41;5027107;28;20509;-73
2021/06/09 07:49:53;;;;;;;23.00;16.20;;;;;;;27.77;40.43;101887.69;5026407;28;20551;-73
2021/06/09 07:52:20;;;;;;;19.17;16.17;;;;;;;27.82;39.88;101889.63;5026226;28;20037;-73
2021/06/09 07:54:47;;;;;;;17.52;13.45;;;;;;;28.10;40.55;101889.47;5030261;28;20132;-72
2021/06/09 07:57:14;;;;;;;21.80;16.85;;;;;;;28.37;40.20;101885.25;5030423;28;20475;-72
2021/06/09 07:59:40;;;;;;;20.25;15.00;;;;;;;28.24;39.95;101891.81;5025781;28;20463;-72
2021/06/09 08:02:06;;;;;;;19.17;12.88;;;;;;;28.42;40.12;101886.13;5029011;28;20040;-72
2021/06/09 08:04:33;;;;;;;21.08;14.77;;;;;;;28.77;39.72;101892.94;5024083;28;20042;-72
2021/06/09 08:06:59;;;;;;;19.45;15.85;;;;;;;28.63;40.47;101897.03;5030838;28;20051;-72
2021/06/09 08:09:25;;;;;;;21.48;15.68;;;;;;;28.35;40.64;101890.88;5029885;28;20067;-72
2021/06/09 08:11:52;;;;;;;21.67;13.80;;;;;;;28.14;40.79;101889.78;5030775;28;20033;-73
2021/06/09 08:14:20;;;;;;;20.58;16.08;;;;;;;28.46;39.61;101889.91;5030617;28;20033;-72
2021/06/09 08:16:46;;;;;;;23.02;14.82;;;;;;;28.96;38.15;101880.00;5030469;28;20499;-72
2021/06/09 08:19:12;;;;;;;17.42;13.95;;;;;;;28.97;37.48;101880.81;5024817;28;20029;-72
2021/06/09 08:21:37;;;;;;;18.88;13.45;;;;;;;28.89;37.13;101880.22;5030981;28;20048;-72
2021/06/09 08:24:05;;;;;;;20.42;15.13;;;;;;;28.49;38.90;101886.72;5030760;28;20029;-72
2021/06/09 08:26:31;;;;;;;19.20;14.98;;;;;;;28.65;38.63;101881.59;5025624;28;20029;-73
2021/06/09 08:28:58;;;;;;;17.17;12.18;;;;;;;28.92;38.20;101887.72;5025606;28;20028;-73
2021/06/09 08:31:26;;;;;;;22.95;15.88;;;;;;;28.65;39.02;101889.59;5029569;28;20029;-72
2021/06/09 08:33:54;;;;;;;14.02;11.98;;;;;;;27.76;41.16;101889.56;5026552;28;20045;-72
2021/06/09 08:36:20;;;;;;;14.50;10.63;;;;;;;27.29;42.57;101895.22;5027540;28;20566;-73
2021/06/09 08:38:53;;;;;;;20.25;13.32;;;;;;;27.89;40.51;101890.28;5026100;28;20033;-72
2021/06/09 08:41:22;;;;;;;15.75;11.02;;;;;;;28.73;39.29;101884.63;5026290;28;20044;-72
2021/06/09 08:43:48;;;;;;;20.38;14.40;;;;;;;29.08;40.92;101887.84;5041547;28;20037;-73
2021/06/09 08:46:16;;;;;;;19.58;15.32;;;;;;;29.02;38.29;101891.53;5029142;28;20546;-73
2021/06/09 08:48:44;;;;;;;21.42;15.07;;;;;;;28.79;38.42;101890.81;5042531;28;20061;-72
2021/06/09 08:51:11;;;;;;;21.08;16.20;;;;;;;28.91;37.74;101882.63;5024357;28;20069;-73
2021/06/09 08:53:41;;;;;;;22.83;17.05;;;;;;;28.76;38.26;101890.50;5026187;28;20041;-73
2021/06/09 08:56:07;;;;;;;19.73;14.05;;;;;;;29.03;37.61;101885.97;5028683;28;20064;-73
2021/06/09 08:58:34;;;;;;;17.10;12.73;;;;;;;29.09;37.39;101889.47;5041593;28;20068;-73
2021/06/09 09:00:59;;;;;;;18.65;12.90;;;;;;;29.39;37.10;101888.94;5029288;28;20029;-73
2021/06/09 09:03:25;;;;;;;16.27;12.65;;;;;;;29.69;37.03;101888.31;5027317;28;20044;-72
2021/06/09 09:05:50;;;;;;;18.52;12.70;;;;;;;29.78;37.70;101888.66;5041971;28;20044;-73
2021/06/09 09:08:16;;;;;;;21.10;14.38;;;;;;;29.99;35.64;101886.06;5041316;28;20039;-73
2021/06/09 09:10:41;;;;;;;18.83;13.30;;;;;;;29.57;36.87;101889.56;5026322;28;20025;-72
2021/06/09 09:13:07;;;;;;;16.92;11.48;;;;;;;29.63;37.63;101886.69;5029665;28;20425;-73
2021/06/09 09:15:32;;;;;;;18.23;12.23;;;;;;;29.58;36.19;101886.66;5042063;28;20071;-73
2021/06/09 09:18:03;;;;;;;17.00;11.77;;;;;;;28.90;37.56;101887.19;5028352;28;20069;-73
2021/06/09 09:20:31;;;;;;;14.80;11.70;;;;;;;28.51;37.94;101891.81;5027429;28;20128;-73
2021/06/09 09:22:58;;;;;;;19.58;12.82;;;;;;;28.03;39.45;101893.38;5028058;28;20063;-73
2021/06/09 09:25:27;;;;;;;17.23;11.77;;;;;;;27.68;40.14;101894.50;5021290;28;20160;-72
2021/06/09 09:28:02;;;;;;;19.95;14.93;;;;;;;27.61;39.09;101891.19;5040656;28;20033;-72
2021/06/09 09:30:30;;;;;;;15.43;12.45;;;;;;;27.64;39.21;101890.72;5027115;28;20400;-73
2021/06/09 09:33:06;;;;;;;25.15;14.98;;;;;;;27.93;40.52;101894.88;5028290;28;20037;-73
2021/06/09 09:35:36;;;;;;;19.67;13.70;;;;;;;28.45;38.40;101896.28;5025030;28;20120;-72
2021/06/09 09:38:20;;;;;;;23.85;15.88;;;;;;;28.43;40.02;101902.94;5023321;28;20029;-72
2021/06/09 09:41:21;;;;;;;27.00;17.27;;;;;;;28.68;39.29;101905.91;5028230;28;20045;-73
2021/06/09 09:43:58;;;;;;;21.60;15.50;;;;;;;28.13;40.39;101909.53;4945788;28;20097;-72
2021/06/09 09:46:32;;;;;;;18.25;14.65;;;;;;;27.58;40.85;101905.81;5001532;28;21756;-72
2021/06/09 09:48:58;;;;;;;24.35;14.52;;;;;;;26.92;41.70;101910.81;5008450;28;20041;-72
2021/06/09 09:51:25;;;;;;;14.98;12.55;;;;;;;26.78;41.70;101908.44;5025487;28;20029;-72
2021/06/09 09:53:56;;;;;;;13.20;10.68;;;;;;;26.55;42.84;101911.97;5025019;28;20048;-72
2021/06/09 09:56:22;;;;;;;15.68;11.00;;;;;;;26.69;42.36;101915.22;5025514;28;20048;-72
2021/06/09 09:59:05;;;;;;;16.73;9.38;;;;;;;26.73;42.47;101911.03;5022790;28;20066;-72
2021/06/09 10:01:42;;;;;;;13.77;11.25;;;;;;;26.67;41.89;101909.28;5024071;28;20666;-72
2021/06/09 10:04:08;;;;;;;28.52;9.50;;;;;;;27.25;41.59;101907.41;5017791;28;20613;-72
2021/06/09 10:06:44;;;;;;;13.82;10.00;;;;;;;27.71;40.99;101902.00;5020384;28;20435;-73
2021/06/09 10:09:15;;;;;;;17.10;12.88;;;;;;;28.10;40.02;101900.13;5019132;28;20083;-72
2021/06/09 10:11:44;;;;;;;15.82;10.43;;;;;;;28.41;37.80;101894.38;5022191;28;20375;-72
2021/06/09 10:14:22;;;;;;;13.20;10.43;;;;;;;28.75;37.06;101904.91;5018703;28;20501;-72
2021/06/09 10:16:55;;;;;;;12.20;9.43;;;;;;;29.09;35.16;101900.16;5033512;28;20037;-72
2021/06/09 10:19:21;;;;;;;10.88;8.07;;;;;;;29.17;35.52;101891.69;5023923;28;20076;-72
2021/06/09 10:21:55;;;;;;;13.20;9.68;;;;;;;28.98;34.22;101895.78;5039621;28;20068;-72
2021/06/09 10:24:23;;;;;;;13.02;10.90;;;;;;;28.91;34.84;101893.31;5028280;28;20060;-72
2021/06/09 10:26:59;;;;;;;15.73;9.10;;;;;;;29.00;35.09;101885.66;5038104;28;20087;-72
2021/06/09 10:29:25;;;;;;;16.15;10.93;;;;;;;28.65;35.49;101894.91;5026921;28;20475;-73
2021/06/09 10:32:00;;;;;;;11.10;9.75;;;;;;;28.77;35.65;101892.94;5024853;28;20037;-73
2021/06/09 10:34:29;;;;;;;16.42;11.60;;;;;;;28.87;35.23;101890.34;5027848;28;20051;-73
2021/06/09 10:36:56;;;;;;;12.30;8.73;;;;;;;28.91;36.39;101886.13;5030294;28;20049;-73
2021/06/09 10:39:24;;;;;;;11.95;9.25;;;;;;;29.14;36.32;101884.22;5022641;28;20029;-73
2021/06/09 10:41:53;;;;;;;10.20;8.57;;;;;;;29.25;36.63;101885.06;5025370;28;20039;-72
2021/06/09 10:44:25;;;;;;;12.02;7.68;;;;;;;29.02;36.58;101887.00;5020947;28;20037;-72
2021/06/09 10:46:54;;;;;;;17.33;11.88;;;;;;;28.69;37.65;101885.38;5022201;28;20103;-72
2021/06/09 10:49:22;;;;;;;13.82;9.85;;;;;;;28.20;37.80;101888.00;5016699;28;20064;-73
2021/06/09 10:51:50;;;;;;;14.23;9.73;;;;;;;28.25;38.69;101886.19;5016960;28;20044;-72
2021/06/09 10:54:16;;;;;;;13.93;11.55;;;;;;;28.28;38.62;101892.91;5032763;28;20040;-72
2021/06/09 10:56:47;;;;;;;14.93;11.63;;;;;;;28.02;39.35;101884.59;5017555;28;20025;-73
2021/06/09 10:59:17;;;;;;;12.75;11.10;;;;;;;27.82;38.85;101882.44;5015672;28;20033;-72
2021/06/09 11:01:44;;;;;;;13.38;10.95;;;;;;;28.38;39.79;101882.34;5019573;28;20406;-73
2021/06/09 11:04:10;;;;;;;12.68;10.60;;;;;;;28.51;37.78;101881.16;5017605;28;20528;-72
2021/06/09 11:06:38;;;;;;;15.45;13.68;;;;;;;28.51;38.62;101881.94;5039645;28;20152;-72
2021/06/09 11:09:26;;;;;;;18.70;11.73;;;;;;;28.49;37.05;101889.41;5039992;28;20041;-72
2021/06/09 11:12:13;;;;;;;16.60;13.25;;;;;;;28.25;37.62;101888.06;5027084;28;20033;-72
2021/06/09 11:14:51;;;;;;;12.10;10.15;;;;;;;28.53;36.58;101884.41;5023715;28;20033;-72
2021/06/09 11:17:57;;;;;;;14.38;12.32;;;;;;;28.64;37.34;101883.44;5019433;28;20034;-72
2021/06/09 11:20:34;;;;;;;16.15;13.38;;;;;;;28.83;37.49;101880.44;5014334;28;20045;-72